createdAt,value
2016-11-10T00:00:56.416Z,0
2016-11-10T00:01:56.433Z,0
2016-11-10T00:02:56.449Z,0
2016-11-10T00:03:56.809Z,0
2016-11-10T00:04:56.477Z,0
2016-11-10T00:05:56.501Z,0
2016-11-10T00:06:56.198Z,0
2016-11-10T00:07:56.538Z,0
2016-11-10T00:08:56.258Z,0
2016-11-10T00:09:56.242Z,0
2016-11-10T00:10:56.565Z,0
2016-11-10T00:11:57.222Z,0
2016-11-10T00:12:56.603Z,0
2016-11-10T00:13:56.947Z,0
2016-11-10T00:14:56.637Z,0
2016-11-10T00:15:56.335Z,0
2016-11-10T00:16:56.668Z,0
2016-11-10T00:17:56.722Z,0
2016-11-10T00:18:56.390Z,0
2016-11-10T00:19:57.028Z,0
2016-11-10T00:20:57.045Z,0
2016-11-10T00:21:57.066Z,0
2016-11-10T00:22:56.446Z,0
2016-11-10T00:23:56.796Z,0
2016-11-10T00:24:56.790Z,0
2016-11-10T00:25:56.499Z,0
2016-11-10T00:26:56.828Z,0
2016-11-10T00:27:56.842Z,0
2016-11-10T00:28:56.535Z,0
2016-11-10T00:29:56.562Z,0
2016-11-10T00:30:56.575Z,0
2016-11-10T00:31:57.228Z,0
2016-11-10T00:32:56.919Z,0
2016-11-10T00:33:56.932Z,0
2016-11-10T00:34:56.638Z,0
2016-11-10T00:35:56.651Z,0
2016-11-10T00:36:56.977Z,0
2016-11-10T00:37:57.315Z,0
2016-11-10T00:38:56.700Z,0
2016-11-10T00:39:57.033Z,0
2016-11-10T00:40:56.723Z,0
2016-11-10T00:41:57.068Z,0
2016-11-10T00:42:57.078Z,0
2016-11-10T00:43:57.095Z,0
2016-11-10T00:44:56.797Z,0
2016-11-10T00:45:56.811Z,0
2016-11-10T00:46:57.770Z,0
2016-11-10T00:47:56.527Z,0
2016-11-10T00:48:56.859Z,0
2016-11-10T00:49:57.181Z,0
2016-11-10T00:50:57.839Z,0
2016-11-10T00:51:57.220Z,0
2016-11-10T00:52:56.926Z,0
2016-11-10T00:53:56.966Z,0
2016-11-10T00:54:57.269Z,0
2016-11-10T00:55:57.296Z,0
2016-11-10T00:56:56.989Z,0
2016-11-10T00:57:56.681Z,0
2016-11-10T00:58:57.013Z,0
2016-11-10T00:59:56.715Z,0
2016-11-10T01:00:57.045Z,0
2016-11-10T01:01:57.422Z,0
2016-11-10T01:02:57.092Z,0
2016-11-10T01:03:57.730Z,0
2016-11-10T01:04:57.424Z,0
2016-11-10T01:05:57.125Z,0
2016-11-10T01:06:57.157Z,0
2016-11-10T01:07:57.170Z,0
2016-11-10T01:08:57.491Z,0
2016-11-10T01:09:57.524Z,0
2016-11-10T01:10:57.202Z,0
2016-11-10T01:11:57.224Z,0
2016-11-10T01:12:57.875Z,0
2016-11-10T01:13:57.598Z,0
2016-11-10T01:14:57.270Z,0
2016-11-10T01:15:57.285Z,0
2016-11-10T01:16:57.300Z,0
2016-11-10T01:17:57.645Z,0
2016-11-10T01:18:57.333Z,0
2016-11-10T01:19:57.051Z,0
2016-11-10T01:20:57.683Z,0
2016-11-10T01:21:57.732Z,0
2016-11-10T01:22:58.340Z,0
2016-11-10T01:23:57.732Z,0
2016-11-10T01:24:57.435Z,0
2016-11-10T01:25:57.446Z,0
2016-11-10T01:26:57.786Z,0
2016-11-10T01:27:57.168Z,0
2016-11-10T01:28:57.811Z,0
2016-11-10T01:29:57.828Z,0
2016-11-10T01:30:57.210Z,0
2016-11-10T01:31:57.858Z,0
2016-11-10T01:32:57.874Z,0
2016-11-10T01:33:57.614Z,0
2016-11-10T01:34:57.592Z,0
2016-11-10T01:35:58.281Z,0
2016-11-10T01:36:58.254Z,0
2016-11-10T01:37:57.957Z,0
2016-11-10T01:38:57.336Z,0
2016-11-10T01:39:57.666Z,0
2016-11-10T01:40:58.321Z,0
2016-11-10T01:41:58.343Z,0
2016-11-10T01:42:57.718Z,0
2016-11-10T01:43:57.737Z,0
2016-11-10T01:44:57.748Z,0
2016-11-10T01:45:58.080Z,0
2016-11-10T01:46:58.414Z,0
2016-11-10T01:47:58.640Z,0
2016-11-10T01:48:58.131Z,0
2016-11-10T01:49:58.158Z,0
2016-11-10T01:50:57.529Z,0
2016-11-10T01:51:58.811Z,0
2016-11-10T01:52:57.880Z,0
2016-11-10T01:53:57.891Z,0
2016-11-10T01:54:58.862Z,0
2016-11-10T01:55:58.564Z,0
2016-11-10T01:56:58.269Z,0
2016-11-10T01:57:58.629Z,0
2016-11-10T01:58:57.987Z,0
2016-11-10T01:59:58.323Z,0
2016-11-10T02:00:58.323Z,0
2016-11-10T02:01:57.946Z,0
2016-11-10T02:02:58.989Z,0
2016-11-10T02:03:57.776Z,0
2016-11-10T02:04:58.077Z,0
2016-11-10T02:05:58.741Z,0
2016-11-10T02:06:57.784Z,0
2016-11-10T02:07:58.753Z,0
2016-11-10T02:08:58.145Z,0
2016-11-10T02:09:58.487Z,0
2016-11-10T02:10:59.114Z,0
2016-11-10T02:11:58.503Z,0
2016-11-10T02:12:58.516Z,0
2016-11-10T02:13:58.216Z,0
2016-11-10T02:14:57.915Z,0
2016-11-10T02:15:57.947Z,0
2016-11-10T02:16:58.266Z,0
2016-11-10T02:17:58.609Z,0
2016-11-10T02:18:58.606Z,0
2016-11-10T02:19:58.629Z,0
2016-11-10T02:20:58.360Z,0
2016-11-10T02:21:58.671Z,0
2016-11-10T02:22:58.369Z,0
2016-11-10T02:23:58.386Z,0
2016-11-10T02:24:58.079Z,0
2016-11-10T02:25:58.729Z,0
2016-11-10T02:26:58.428Z,0
2016-11-10T02:27:59.082Z,0
2016-11-10T02:28:58.790Z,0
2016-11-10T02:29:58.518Z,0
2016-11-10T02:30:58.827Z,0
2016-11-10T02:31:58.858Z,0
2016-11-10T02:32:58.834Z,0
2016-11-10T02:33:58.860Z,0
2016-11-10T02:34:59.196Z,0
2016-11-10T02:35:59.241Z,0
2016-11-10T02:36:58.903Z,0
2016-11-10T02:37:59.250Z,0
2016-11-10T02:38:59.255Z,0
2016-11-10T02:39:59.585Z,0
2016-11-10T02:40:58.650Z,0
2016-11-10T02:41:58.989Z,0
2016-11-10T02:42:59.316Z,0
2016-11-10T02:43:59.358Z,0
2016-11-10T02:44:59.033Z,0
2016-11-10T02:45:59.686Z,0
2016-11-10T02:46:59.378Z,0
2016-11-10T02:47:58.767Z,0
2016-11-10T02:48:59.110Z,0
2016-11-10T02:49:58.492Z,0
2016-11-10T02:50:58.814Z,0
2016-11-10T02:51:58.839Z,0
2016-11-10T02:52:58.591Z,0
2016-11-10T02:53:58.863Z,0
2016-11-10T02:54:58.560Z,0
2016-11-10T02:55:58.891Z,0
2016-11-10T02:56:59.224Z,0
2016-11-10T02:57:59.238Z,0
2016-11-10T02:58:58.943Z,0
2016-11-10T02:59:59.902Z,0
2016-11-10T03:00:58.971Z,0
2016-11-10T03:01:59.309Z,0
2016-11-10T03:02:59.646Z,0
2016-11-10T03:03:59.035Z,0
2016-11-10T03:04:59.038Z,0
2016-11-10T03:05:59.064Z,0
2016-11-10T03:06:59.075Z,0
2016-11-10T03:07:59.408Z,0
2016-11-10T03:08:59.100Z,0
2016-11-10T03:09:59.440Z,0
2016-11-10T03:10:58.821Z,0
2016-11-10T03:11:59.466Z,0
2016-11-10T03:12:59.474Z,0
2016-11-10T03:13:59.815Z,0
2016-11-10T03:14:59.516Z,0
2016-11-10T03:15:59.539Z,0
2016-11-10T03:16:59.542Z,0
2016-11-10T03:17:59.250Z,0
2016-11-10T03:18:59.630Z,0
2016-11-10T03:19:58.977Z,0
2016-11-10T03:20:59.610Z,0
2016-11-10T03:21:59.632Z,0
2016-11-10T03:22:59.955Z,0
2016-11-10T03:23:59.980Z,0
2016-11-10T03:24:59.356Z,0
2016-11-10T03:26:00.315Z,0
2016-11-10T03:26:59.391Z,0
2016-11-10T03:27:59.417Z,0
2016-11-10T03:28:59.732Z,0
2016-11-10T03:30:00.392Z,0
2016-11-10T03:30:59.451Z,0
2016-11-10T03:31:59.478Z,0
2016-11-10T03:32:59.484Z,0
2016-11-10T03:34:00.170Z,0
2016-11-10T03:34:59.846Z,0
2016-11-10T03:35:59.846Z,0
2016-11-10T03:36:59.868Z,0
2016-11-10T03:37:59.891Z,0
2016-11-10T03:38:59.896Z,0
2016-11-10T03:39:59.922Z,0
2016-11-10T03:40:59.304Z,0
2016-11-10T03:41:59.969Z,0
2016-11-10T03:42:59.985Z,0
2016-11-10T03:44:00.000Z,0
2016-11-10T03:44:59.994Z,0
2016-11-10T03:45:59.406Z,0
2016-11-10T03:47:00.021Z,0
2016-11-10T03:48:00.370Z,0
2016-11-10T03:48:59.449Z,0
2016-11-10T03:50:00.075Z,0
2016-11-10T03:51:00.091Z,0
2016-11-10T03:52:00.418Z,0
2016-11-10T03:53:00.438Z,0
2016-11-10T03:53:59.851Z,0
2016-11-10T03:55:00.471Z,0
2016-11-10T03:56:00.171Z,0
2016-11-10T03:56:59.558Z,0
2016-11-10T03:57:59.889Z,0
2016-11-10T03:59:00.252Z,0
2016-11-10T04:00:00.669Z,0
2016-11-10T04:00:59.933Z,0
2016-11-10T04:01:59.964Z,0
2016-11-10T04:03:00.938Z,0
2016-11-10T04:04:00.002Z,0
2016-11-10T04:05:00.662Z,0
2016-11-10T04:06:00.042Z,0
2016-11-10T04:07:00.085Z,0
2016-11-10T04:08:00.067Z,0
2016-11-10T04:09:00.702Z,0
2016-11-10T04:09:59.777Z,0
2016-11-10T04:11:00.092Z,0
2016-11-10T04:12:00.458Z,0
2016-11-10T04:13:00.128Z,0
2016-11-10T04:14:00.784Z,0
2016-11-10T04:15:00.793Z,0
2016-11-10T04:16:01.133Z,0
2016-11-10T04:17:00.189Z,0
2016-11-10T04:18:00.206Z,0
2016-11-10T04:19:00.537Z,0
2016-11-10T04:20:00.880Z,0
2016-11-10T04:21:00.567Z,0
2016-11-10T04:22:00.604Z,0
2016-11-10T04:23:00.622Z,0
2016-11-10T04:24:00.303Z,0
2016-11-10T04:25:00.640Z,0
2016-11-10T04:26:01.287Z,0
2016-11-10T04:27:00.041Z,0
2016-11-10T04:28:00.382Z,0
2016-11-10T04:29:00.402Z,0
2016-11-10T04:30:01.031Z,0
2016-11-10T04:31:00.734Z,0
2016-11-10T04:32:00.432Z,0
2016-11-10T04:33:00.143Z,0
2016-11-10T04:34:00.781Z,0
2016-11-10T04:35:00.823Z,0
2016-11-10T04:36:01.272Z,0
2016-11-10T04:37:01.178Z,0
2016-11-10T04:38:01.157Z,0
2016-11-10T04:39:01.176Z,0
2016-11-10T04:40:00.572Z,0
2016-11-10T04:41:01.213Z,0
2016-11-10T04:42:00.283Z,0
2016-11-10T04:43:00.930Z,0
2016-11-10T04:44:00.983Z,0
2016-11-10T04:45:01.030Z,0
2016-11-10T04:46:00.977Z,0
2016-11-10T04:47:01.333Z,0
2016-11-10T04:48:00.689Z,0
2016-11-10T04:49:01.025Z,0
2016-11-10T04:50:01.394Z,0
2016-11-10T04:51:01.390Z,0
2016-11-10T04:52:00.760Z,0
2016-11-10T04:53:01.091Z,0
2016-11-10T04:54:01.108Z,0
2016-11-10T04:55:00.492Z,0
2016-11-10T04:56:00.830Z,0
2016-11-10T04:57:01.797Z,0
2016-11-10T04:58:01.190Z,0
2016-11-10T04:59:01.203Z,0
2016-11-10T05:00:01.526Z,0
2016-11-10T05:01:00.626Z,0
2016-11-10T05:02:00.922Z,0
2016-11-10T05:03:01.573Z,0
2016-11-10T05:04:01.582Z,0
2016-11-10T05:05:01.605Z,0
2016-11-10T05:06:01.342Z,0
2016-11-10T05:07:01.013Z,0
2016-11-10T05:08:01.340Z,0
2016-11-10T05:09:01.378Z,0
2016-11-10T05:10:01.697Z,0
2016-11-10T05:11:01.064Z,0
2016-11-10T05:12:01.399Z,0
2016-11-10T05:13:01.744Z,0
2016-11-10T05:14:00.802Z,0
2016-11-10T05:15:01.137Z,0
2016-11-10T05:16:01.459Z,0
2016-11-10T05:17:01.160Z,0
2016-11-10T05:18:01.181Z,0
2016-11-10T05:19:01.200Z,0
2016-11-10T05:20:01.216Z,0
2016-11-10T05:21:01.894Z,0
2016-11-10T05:22:01.879Z,0
2016-11-10T05:23:01.257Z,0
2016-11-10T05:24:01.595Z,0
2016-11-10T05:25:01.918Z,0
2016-11-10T05:26:01.305Z,0
2016-11-10T05:27:01.319Z,0
2016-11-10T05:28:01.333Z,0
2016-11-10T05:29:01.669Z,0
2016-11-10T05:30:01.996Z,0
2016-11-10T05:31:01.380Z,0
2016-11-10T05:32:02.039Z,0
2016-11-10T05:33:01.419Z,0
2016-11-10T05:34:01.746Z,0
2016-11-10T05:35:01.768Z,0
2016-11-10T05:36:01.153Z,0
2016-11-10T05:37:01.478Z,0
2016-11-10T05:38:02.031Z,0
2016-11-10T05:39:01.765Z,0
2016-11-10T05:40:01.522Z,0
2016-11-10T05:41:01.851Z,0
2016-11-10T05:42:02.193Z,0
2016-11-10T05:43:02.198Z,0
2016-11-10T05:44:01.584Z,0
2016-11-10T05:45:01.930Z,0
2016-11-10T05:46:02.249Z,0
2016-11-10T05:47:02.264Z,0
2016-11-10T05:48:01.649Z,0
2016-11-10T05:49:02.297Z,0
2016-11-10T05:50:02.323Z,0
2016-11-10T05:51:02.014Z,0
2016-11-10T05:52:01.706Z,0
2016-11-10T05:53:01.728Z,0
2016-11-10T05:54:01.428Z,0
2016-11-10T05:55:01.758Z,0
2016-11-10T05:56:01.834Z,0
2016-11-10T05:57:01.790Z,0
2016-11-10T05:58:02.133Z,0
2016-11-10T05:59:01.857Z,0
2016-11-10T06:00:01.840Z,0
2016-11-10T06:01:02.480Z,0
2016-11-10T06:02:01.550Z,0
2016-11-10T06:03:01.893Z,0
2016-11-10T06:04:01.911Z,0
2016-11-10T06:05:02.238Z,0
2016-11-10T06:06:02.250Z,0
2016-11-10T06:07:02.267Z,0
2016-11-10T06:08:01.961Z,0
2016-11-10T06:09:01.978Z,0
2016-11-10T06:10:02.021Z,0
2016-11-10T06:11:02.326Z,0
2016-11-10T06:12:02.335Z,0
2016-11-10T06:13:02.043Z,0
2016-11-10T06:14:02.405Z,0
2016-11-10T06:15:02.720Z,0
2016-11-10T06:16:02.097Z,0
2016-11-10T06:17:02.099Z,0
2016-11-10T06:18:02.797Z,0
2016-11-10T06:19:02.133Z,0
2016-11-10T06:20:02.479Z,0
2016-11-10T06:21:02.162Z,0
2016-11-10T06:22:02.200Z,0
2016-11-10T06:23:02.508Z,0
2016-11-10T06:24:02.536Z,0
2016-11-10T06:25:02.542Z,0
2016-11-10T06:26:02.574Z,0
2016-11-10T06:27:02.267Z,0
2016-11-10T06:28:03.213Z,0
2016-11-10T06:29:02.603Z,0
2016-11-10T06:30:02.000Z,0
2016-11-10T06:31:02.635Z,0
2016-11-10T06:32:02.379Z,0
2016-11-10T06:33:03.298Z,0
2016-11-10T06:34:02.054Z,0
2016-11-10T06:35:02.724Z,0
2016-11-10T06:36:02.709Z,0
2016-11-10T06:37:02.093Z,0
2016-11-10T06:38:02.742Z,0
2016-11-10T06:39:02.125Z,0
2016-11-10T06:40:02.837Z,0
2016-11-10T06:41:02.805Z,0
2016-11-10T06:42:02.826Z,0
2016-11-10T06:43:02.816Z,0
2016-11-10T06:44:02.848Z,0
2016-11-10T06:45:03.240Z,0
2016-11-10T06:46:02.877Z,0
2016-11-10T06:47:02.907Z,0
2016-11-10T06:48:02.917Z,0
2016-11-10T06:49:03.429Z,0
2016-11-10T06:50:02.932Z,0
2016-11-10T06:51:02.938Z,0
2016-11-10T06:52:02.640Z,0
2016-11-10T06:53:02.973Z,0
2016-11-10T06:54:02.987Z,0
2016-11-10T06:55:02.691Z,0
2016-11-10T06:56:03.346Z,0
2016-11-10T06:57:02.426Z,5
2016-11-10T06:58:02.735Z,5
2016-11-10T06:59:03.074Z,5
2016-11-10T07:00:03.115Z,5
2016-11-10T07:01:02.790Z,5
2016-11-10T07:02:02.808Z,5
2016-11-10T07:03:03.155Z,5
2016-11-10T07:04:03.144Z,5
2016-11-10T07:05:03.159Z,0
2016-11-10T07:06:03.205Z,0
2016-11-10T07:07:03.213Z,0
2016-11-10T07:08:03.206Z,0
2016-11-10T07:09:02.904Z,0
2016-11-10T07:10:03.254Z,0
2016-11-10T07:11:02.936Z,0
2016-11-10T07:12:03.262Z,0
2016-11-10T07:13:03.597Z,5
2016-11-10T07:14:03.294Z,0
2016-11-10T07:15:03.309Z,0
2016-11-10T07:16:03.070Z,0
2016-11-10T07:17:02.707Z,0
2016-11-10T07:18:03.040Z,0
2016-11-10T07:19:03.060Z,0
2016-11-10T07:20:03.109Z,0
2016-11-10T07:21:03.088Z,0
2016-11-10T07:22:02.789Z,0
2016-11-10T07:23:03.430Z,0
2016-11-10T07:24:03.765Z,0
2016-11-10T07:25:03.519Z,0
2016-11-10T07:26:03.518Z,5
2016-11-10T07:27:03.493Z,5
2016-11-10T07:28:03.194Z,5
2016-11-10T07:29:02.913Z,5
2016-11-10T07:30:03.562Z,5
2016-11-10T07:31:03.876Z,5
2016-11-10T07:32:02.944Z,5
2016-11-10T07:33:03.589Z,5
2016-11-10T07:34:03.921Z,5
2016-11-10T07:35:03.618Z,5
2016-11-10T07:36:03.671Z,5
2016-11-10T07:37:03.967Z,5
2016-11-10T07:38:03.663Z,5
2016-11-10T07:39:03.702Z,5
2016-11-10T07:40:03.437Z,5
2016-11-10T07:41:03.752Z,5
2016-11-10T07:42:03.731Z,5
2016-11-10T07:43:03.744Z,10
2016-11-10T07:44:04.392Z,10
2016-11-10T07:45:03.472Z,10
2016-11-10T07:46:03.161Z,5
2016-11-10T07:47:04.004Z,5
2016-11-10T07:48:04.152Z,5
2016-11-10T07:49:03.570Z,0
2016-11-10T07:50:03.533Z,5
2016-11-10T07:51:04.179Z,5
2016-11-10T07:52:04.200Z,0
2016-11-10T07:53:03.586Z,0
2016-11-10T07:54:03.288Z,0
2016-11-10T07:55:04.180Z,0
2016-11-10T07:56:03.942Z,0
2016-11-10T07:57:04.276Z,0
2016-11-10T07:58:03.669Z,0
2016-11-10T07:59:03.999Z,0
2016-11-10T08:00:03.709Z,0
2016-11-10T08:01:03.711Z,0
2016-11-10T08:02:04.355Z,5
2016-11-10T08:03:04.056Z,5
2016-11-10T08:04:04.076Z,5
2016-11-10T08:05:04.410Z,5
2016-11-10T08:06:03.791Z,5
2016-11-10T08:07:04.133Z,5
2016-11-10T08:08:03.504Z,5
2016-11-10T08:09:04.152Z,10
2016-11-10T08:10:04.505Z,10
2016-11-10T08:11:03.865Z,15
2016-11-10T08:12:04.194Z,10
2016-11-10T08:13:04.245Z,20
2016-11-10T08:14:03.912Z,25
2016-11-10T08:15:04.573Z,25
2016-11-10T08:16:04.607Z,25
2016-11-10T08:17:03.961Z,25
2016-11-10T08:18:04.293Z,25
2016-11-10T08:19:04.308Z,15
2016-11-10T08:20:04.038Z,15
2016-11-10T08:21:04.343Z,5
2016-11-10T08:22:04.360Z,5
2016-11-10T08:23:04.713Z,5
2016-11-10T08:24:03.763Z,5
2016-11-10T08:25:04.413Z,5
2016-11-10T08:26:04.142Z,5
2016-11-10T08:27:04.770Z,10
2016-11-10T08:28:03.820Z,10
2016-11-10T08:29:04.488Z,10
2016-11-10T08:30:04.802Z,10
2016-11-10T08:31:04.820Z,15
2016-11-10T08:32:04.836Z,15
2016-11-10T08:33:04.555Z,10
2016-11-10T08:34:04.875Z,10
2016-11-10T08:35:05.196Z,5
2016-11-10T08:36:04.574Z,10
2016-11-10T08:37:04.596Z,10
2016-11-10T08:38:04.614Z,10
2016-11-10T08:39:04.633Z,10
2016-11-10T08:40:04.660Z,10
2016-11-10T08:41:04.976Z,10
2016-11-10T08:42:04.356Z,10
2016-11-10T08:43:04.377Z,10
2016-11-10T08:44:05.024Z,10
2016-11-10T08:45:04.725Z,15
2016-11-10T08:46:04.759Z,15
2016-11-10T08:47:04.776Z,15
2016-11-10T08:48:05.400Z,10
2016-11-10T08:49:05.435Z,10
2016-11-10T08:50:05.120Z,10
2016-11-10T08:51:04.830Z,5
2016-11-10T08:52:04.838Z,5
2016-11-10T08:53:05.199Z,5
2016-11-10T08:54:04.913Z,10
2016-11-10T08:55:05.540Z,5
2016-11-10T08:56:04.903Z,5
2016-11-10T08:57:04.913Z,5
2016-11-10T08:58:04.302Z,5
2016-11-10T08:59:04.339Z,5
2016-11-10T09:00:04.970Z,5
2016-11-10T09:01:05.297Z,5
2016-11-10T09:02:04.699Z,5
2016-11-10T09:03:04.699Z,5
2016-11-10T09:04:05.363Z,0
2016-11-10T09:05:05.366Z,0
2016-11-10T09:06:05.382Z,0
2016-11-10T09:07:05.099Z,0
2016-11-10T09:08:05.107Z,0
2016-11-10T09:09:05.425Z,0
2016-11-10T09:10:05.443Z,0
2016-11-10T09:11:05.488Z,0
2016-11-10T09:12:05.482Z,5
2016-11-10T09:13:04.540Z,5
2016-11-10T09:14:04.904Z,5
2016-11-10T09:15:05.256Z,0
2016-11-10T09:16:05.537Z,0
2016-11-10T09:17:05.233Z,0
2016-11-10T09:18:05.271Z,0
2016-11-10T09:19:04.994Z,0
2016-11-10T09:20:05.614Z,0
2016-11-10T09:21:04.706Z,0
2016-11-10T09:22:05.687Z,0
2016-11-10T09:23:05.045Z,0
2016-11-10T09:24:05.042Z,0
2016-11-10T09:25:05.100Z,0
2016-11-10T09:26:05.073Z,0
2016-11-10T09:27:05.411Z,0
2016-11-10T09:28:05.732Z,0
2016-11-10T09:29:05.768Z,0
2016-11-10T09:30:04.813Z,0
2016-11-10T09:31:05.778Z,0
2016-11-10T09:32:04.843Z,0
2016-11-10T09:33:05.808Z,0
2016-11-10T09:34:05.521Z,0
2016-11-10T09:35:05.897Z,0
2016-11-10T09:36:05.578Z,0
2016-11-10T09:37:05.888Z,0
2016-11-10T09:38:05.255Z,0
2016-11-10T09:39:05.585Z,0
2016-11-10T09:40:05.298Z,0
2016-11-10T09:41:05.345Z,5
2016-11-10T09:42:05.644Z,5
2016-11-10T09:43:05.354Z,5
2016-11-10T09:44:05.693Z,5
2016-11-10T09:45:05.704Z,5
2016-11-10T09:46:05.702Z,5
2016-11-10T09:47:05.727Z,5
2016-11-10T09:48:06.079Z,5
2016-11-10T09:49:05.752Z,5
2016-11-10T09:50:05.478Z,5
2016-11-10T09:51:05.479Z,5
2016-11-10T09:52:05.482Z,5
2016-11-10T09:53:05.505Z,5
2016-11-10T09:54:05.196Z,5
2016-11-10T09:55:05.870Z,5
2016-11-10T09:56:05.267Z,5
2016-11-10T09:57:05.877Z,5
2016-11-10T09:58:05.579Z,5
2016-11-10T09:59:05.916Z,5
2016-11-10T10:00:05.289Z,5
2016-11-10T10:01:05.629Z,5
2016-11-10T10:02:05.326Z,5
2016-11-10T10:03:06.304Z,5
2016-11-10T10:04:06.382Z,5
2016-11-10T10:05:06.040Z,5
2016-11-10T10:06:06.056Z,5
2016-11-10T10:07:05.731Z,5
2016-11-10T10:08:06.068Z,5
2016-11-10T10:09:05.456Z,5
2016-11-10T10:10:06.125Z,10
2016-11-10T10:11:06.421Z,10
2016-11-10T10:12:05.811Z,10
2016-11-10T10:13:05.512Z,15
2016-11-10T10:14:06.205Z,15
2016-11-10T10:15:06.517Z,20
2016-11-10T10:16:06.213Z,20
2016-11-10T10:17:06.540Z,20
2016-11-10T10:18:05.919Z,20
2016-11-10T10:19:05.610Z,15
2016-11-10T10:20:05.941Z,15
2016-11-10T10:21:06.274Z,15
2016-11-10T10:22:06.295Z,10
2016-11-10T10:23:06.627Z,10
2016-11-10T10:24:06.669Z,10
2016-11-10T10:25:05.766Z,10
2016-11-10T10:26:06.364Z,10
2016-11-10T10:27:06.061Z,10
2016-11-10T10:28:06.397Z,10
2016-11-10T10:29:05.776Z,15
2016-11-10T10:30:06.745Z,15
2016-11-10T10:31:06.127Z,15
2016-11-10T10:32:06.461Z,20
2016-11-10T10:33:05.840Z,20
2016-11-10T10:34:06.826Z,20
2016-11-10T10:35:06.537Z,20
2016-11-10T10:36:05.910Z,20
2016-11-10T10:37:07.186Z,25
2016-11-10T10:38:06.557Z,35
2016-11-10T10:39:06.257Z,40
2016-11-10T10:40:06.287Z,30
2016-11-10T10:41:06.310Z,35
2016-11-10T10:42:06.505Z,35
2016-11-10T10:43:06.659Z,35
2016-11-10T10:44:06.360Z,25
2016-11-10T10:45:06.991Z,20
2016-11-10T10:46:07.030Z,20
2016-11-10T10:47:06.861Z,35
2016-11-10T10:48:06.412Z,45
2016-11-10T10:49:07.059Z,55
2016-11-10T10:50:06.441Z,60
2016-11-10T10:51:07.643Z,25
2016-11-10T10:52:06.496Z,30
2016-11-10T10:53:06.501Z,30
2016-11-10T10:54:06.843Z,20
2016-11-10T10:55:06.553Z,15
2016-11-10T10:56:07.170Z,15
2016-11-10T10:57:06.572Z,15
2016-11-10T10:58:07.453Z,25
2016-11-10T10:59:06.605Z,25
2016-11-10T11:00:06.619Z,40
2016-11-10T11:01:06.652Z,45
2016-11-10T11:02:06.959Z,30
2016-11-10T11:03:06.715Z,20
2016-11-10T11:04:06.407Z,15
2016-11-10T11:05:07.035Z,15
2016-11-10T11:06:07.370Z,20
2016-11-10T11:07:06.412Z,20
2016-11-10T11:08:07.704Z,20
2016-11-10T11:09:06.779Z,15
2016-11-10T11:10:06.788Z,15
2016-11-10T11:11:06.811Z,15
2016-11-10T11:12:07.185Z,15
2016-11-10T11:13:06.852Z,15
2016-11-10T11:14:07.221Z,10
2016-11-10T11:15:07.547Z,10
2016-11-10T11:16:07.539Z,5
2016-11-10T11:17:07.274Z,5
2016-11-10T11:18:06.933Z,0
2016-11-10T11:19:06.654Z,0
2016-11-10T11:20:06.982Z,0
2016-11-10T11:21:07.623Z,5
2016-11-10T11:22:07.630Z,10
2016-11-10T11:23:07.333Z,10
2016-11-10T11:24:07.356Z,35
2016-11-10T11:25:07.366Z,25
2016-11-10T11:26:07.709Z,25
2016-11-10T11:27:07.084Z,25
2016-11-10T11:28:07.416Z,25
2016-11-10T11:29:07.144Z,30
2016-11-10T11:30:07.505Z,25
2016-11-10T11:31:07.472Z,30
2016-11-10T11:32:07.803Z,55
2016-11-10T11:33:08.147Z,75
2016-11-10T11:34:07.528Z,30
2016-11-10T11:35:06.914Z,25
2016-11-10T11:36:07.558Z,25
2016-11-10T11:37:07.356Z,40
2016-11-10T11:38:07.281Z,25
2016-11-10T11:39:06.993Z,25
2016-11-10T11:40:07.648Z,20
2016-11-10T11:41:08.302Z,15
2016-11-10T11:42:07.039Z,10
2016-11-10T11:43:07.368Z,10
2016-11-10T11:44:08.020Z,10
2016-11-10T11:45:07.440Z,10
2016-11-10T11:46:07.740Z,10
2016-11-10T11:47:07.759Z,10
2016-11-10T11:48:07.142Z,10
2016-11-10T11:49:07.800Z,10
2016-11-10T11:50:07.566Z,10
2016-11-10T11:51:08.143Z,10
2016-11-10T11:52:07.535Z,10
2016-11-10T11:53:07.870Z,10
2016-11-10T11:54:07.250Z,10
2016-11-10T11:55:08.246Z,10
2016-11-10T11:56:07.945Z,10
2016-11-10T11:57:07.623Z,10
2016-11-10T11:58:07.960Z,10
2016-11-10T11:59:07.651Z,10
2016-11-10T12:00:08.301Z,10
2016-11-10T12:01:07.687Z,10
2016-11-10T12:02:07.389Z,15
2016-11-10T12:03:08.033Z,55
2016-11-10T12:04:07.423Z,20
2016-11-10T12:05:08.131Z,15
2016-11-10T12:06:08.105Z,15
2016-11-10T12:07:08.115Z,35
2016-11-10T12:08:08.449Z,35
2016-11-10T12:09:08.148Z,50
2016-11-10T12:10:08.850Z,45
2016-11-10T12:11:08.186Z,30
2016-11-10T12:12:08.227Z,25
2016-11-10T12:13:08.325Z,25
2016-11-10T12:14:07.933Z,25
2016-11-10T12:15:07.980Z,25
2016-11-10T12:16:08.288Z,25
2016-11-10T12:17:08.292Z,25
2016-11-10T12:18:08.003Z,65
2016-11-10T12:19:08.348Z,60
2016-11-10T12:20:08.077Z,45
2016-11-10T12:21:08.385Z,55
2016-11-10T12:22:08.700Z,50
2016-11-10T12:23:08.083Z,15
2016-11-10T12:24:08.445Z,15
2016-11-10T12:25:07.822Z,20
2016-11-10T12:26:08.454Z,15
2016-11-10T12:27:08.476Z,15
2016-11-10T12:28:08.178Z,15
2016-11-10T12:29:08.830Z,15
2016-11-10T12:30:08.539Z,15
2016-11-10T12:31:08.545Z,15
2016-11-10T12:32:09.198Z,15
2016-11-10T12:33:08.947Z,35
2016-11-10T12:34:07.972Z,15
2016-11-10T12:35:08.005Z,15
2016-11-10T12:36:08.950Z,10
2016-11-10T12:37:08.339Z,10
2016-11-10T12:38:09.012Z,10
2016-11-10T12:39:09.011Z,10
2016-11-10T12:40:08.131Z,15
2016-11-10T12:41:09.369Z,15
2016-11-10T12:42:08.127Z,15
2016-11-10T12:43:08.459Z,15
2016-11-10T12:44:09.104Z,15
2016-11-10T12:45:09.004Z,10
2016-11-10T12:46:08.815Z,10
2016-11-10T12:47:09.153Z,10
2016-11-10T12:48:08.282Z,10
2016-11-10T12:49:08.871Z,5
2016-11-10T12:50:08.929Z,5
2016-11-10T12:51:08.296Z,5
2016-11-10T12:52:08.924Z,5
2016-11-10T12:53:08.323Z,5
2016-11-10T12:54:08.969Z,5
2016-11-10T12:55:08.697Z,5
2016-11-10T12:56:08.998Z,5
2016-11-10T12:57:09.043Z,5
2016-11-10T12:58:09.085Z,10
2016-11-10T12:59:08.743Z,15
2016-11-10T13:00:08.461Z,15
2016-11-10T13:01:09.093Z,15
2016-11-10T13:02:08.798Z,15
2016-11-10T13:03:09.126Z,15
2016-11-10T13:04:08.516Z,15
2016-11-10T13:05:09.519Z,30
2016-11-10T13:06:09.182Z,15
2016-11-10T13:07:09.217Z,30
2016-11-10T13:08:09.537Z,15
2016-11-10T13:09:09.241Z,15
2016-11-10T13:10:09.315Z,15
2016-11-10T13:11:09.590Z,10
2016-11-10T13:12:08.979Z,10
2016-11-10T13:13:09.880Z,10
2016-11-10T13:14:09.355Z,10
2016-11-10T13:15:09.674Z,10
2016-11-10T13:16:09.048Z,10
2016-11-10T13:17:09.394Z,20
2016-11-10T13:18:09.442Z,15
2016-11-10T13:19:09.416Z,15
2016-11-10T13:20:09.122Z,25
2016-11-10T13:21:08.818Z,30
2016-11-10T13:22:09.475Z,20
2016-11-10T13:23:09.492Z,15
2016-11-10T13:24:09.508Z,15
2016-11-10T13:25:09.281Z,10
2016-11-10T13:26:09.865Z,10
2016-11-10T13:27:09.241Z,15
2016-11-10T13:28:09.889Z,30
2016-11-10T13:29:09.913Z,25
2016-11-10T13:30:09.615Z,20
2016-11-10T13:31:09.636Z,15
2016-11-10T13:32:09.653Z,15
2016-11-10T13:33:10.015Z,10
2016-11-10T13:34:09.690Z,10
2016-11-10T13:35:09.741Z,10
2016-11-10T13:36:09.732Z,10
2016-11-10T13:37:09.461Z,10
2016-11-10T13:38:09.123Z,10
2016-11-10T13:39:09.785Z,25
2016-11-10T13:40:10.116Z,20
2016-11-10T13:41:09.596Z,20
2016-11-10T13:42:09.646Z,15
2016-11-10T13:43:10.164Z,15
2016-11-10T13:44:09.558Z,10
2016-11-10T13:45:09.938Z,15
2016-11-10T13:46:09.912Z,15
2016-11-10T13:47:09.958Z,10
2016-11-10T13:48:10.276Z,10
2016-11-10T13:49:09.327Z,20
2016-11-10T13:50:10.539Z,10
2016-11-10T13:51:09.681Z,10
2016-11-10T13:52:10.350Z,10
2016-11-10T13:53:09.740Z,15
2016-11-10T13:54:10.087Z,15
2016-11-10T13:55:10.410Z,5
2016-11-10T13:56:09.775Z,10
2016-11-10T13:57:10.125Z,10
2016-11-10T13:58:09.501Z,5
2016-11-10T13:59:10.775Z,5
2016-11-10T14:00:10.245Z,5
2016-11-10T14:01:09.897Z,5
2016-11-10T14:02:10.524Z,5
2016-11-10T14:03:10.219Z,5
2016-11-10T14:04:10.577Z,5
2016-11-10T14:05:10.299Z,5
2016-11-10T14:06:10.603Z,5
2016-11-10T14:07:09.988Z,5
2016-11-10T14:08:09.987Z,5
2016-11-10T14:09:10.341Z,5
2016-11-10T14:10:10.355Z,5
2016-11-10T14:11:10.380Z,5
2016-11-10T14:12:10.407Z,5
2016-11-10T14:13:10.718Z,5
2016-11-10T14:14:10.110Z,5
2016-11-10T14:15:10.176Z,5
2016-11-10T14:16:10.463Z,5
2016-11-10T14:17:10.789Z,5
2016-11-10T14:18:10.237Z,5
2016-11-10T14:19:10.541Z,5
2016-11-10T14:20:10.627Z,5
2016-11-10T14:21:10.231Z,5
2016-11-10T14:22:10.880Z,5
2016-11-10T14:23:10.582Z,5
2016-11-10T14:24:10.603Z,5
2016-11-10T14:25:10.652Z,5
2016-11-10T14:26:11.269Z,5
2016-11-10T14:27:10.338Z,0
2016-11-10T14:28:10.390Z,0
2016-11-10T14:29:10.376Z,0
2016-11-10T14:30:10.404Z,0
2016-11-10T14:31:11.040Z,0
2016-11-10T14:32:11.071Z,0
2016-11-10T14:33:10.438Z,0
2016-11-10T14:34:10.453Z,0
2016-11-10T14:35:10.483Z,0
2016-11-10T14:36:10.501Z,0
2016-11-10T14:37:11.149Z,0
2016-11-10T14:38:10.847Z,0
2016-11-10T14:39:10.868Z,0